Time;durP1;ratioP1;P1;durP2;ratioP2;P2;SDS_P1;SDS_P2;PMS_P1;PMS_P2;Temp;Humidity;BMP_temperature;BMP_pressure;BME280_temperature;BME280_humidity;BME280_pressure;Samples;Min_cycle;Max_cycle;Signal;HPM_P1;HPM_P2
2023/01/29 00:01:05;;;;;;;13.37;10.97;;;;;;;0.72;92.26;97445.84;5136515;28;20215;-60
2023/01/29 00:03:32;;;;;;;14.13;11.43;;;;;;;0.73;91.48;97437.13;5137587;28;20185;-62
2023/01/29 00:05:59;;;;;;;14.23;11.13;;;;;;;0.75;91.31;97445.72;5136946;28;20207;-62
2023/01/29 00:08:25;;;;;;;12.70;10.47;;;;;;;0.71;91.39;97453.72;5138433;28;20196;-62
2023/01/29 00:10:52;;;;;;;16.33;12.30;;;;;;;0.74;91.42;97448.41;5138351;28;20195;-60
2023/01/29 00:13:18;;;;;;;14.53;11.27;;;;;;;0.72;91.18;97445.84;5138697;28;20272;-60
2023/01/29 00:15:53;;;;;;;14.10;11.10;;;;;;;0.75;91.02;97456.13;5138564;28;20235;-61
2023/01/29 00:18:21;;;;;;;14.70;11.40;;;;;;;0.77;91.88;97453.47;5138549;28;20196;-60
2023/01/29 00:20:48;;;;;;;13.47;10.87;;;;;;;0.77;91.63;97456.06;5139158;28;20193;-62
2023/01/29 00:23:14;;;;;;;14.03;11.50;;;;;;;0.81;91.74;97460.25;5139079;28;20182;-60
2023/01/29 00:25:41;;;;;;;14.60;11.63;;;;;;;0.85;92.48;97454.00;5138662;28;20199;-61
2023/01/29 00:28:07;;;;;;;15.13;11.87;;;;;;;0.86;93.45;97448.72;5139386;28;20261;-61
2023/01/29 00:30:35;;;;;;;12.50;11.00;;;;;;;0.92;93.07;97447.63;5130631;28;20199;-61
2023/01/29 00:33:01;;;;;;;14.43;11.73;;;;;;;0.88;93.23;97446.06;5126008;28;20216;-59
2023/01/29 00:35:29;;;;;;;13.50;10.67;;;;;;;0.82;92.49;97452.34;5113759;28;20232;-59
2023/01/29 00:37:55;;;;;;;14.87;11.50;;;;;;;0.85;92.39;97443.59;5113861;28;20212;-60
2023/01/29 00:40:22;;;;;;;15.03;11.57;;;;;;;0.88;93.37;97441.69;5113365;28;20216;-60
2023/01/29 00:45:32;;;;;;;12.77;11.07;;;;;;;0.96;93.02;97443.94;5113812;28;20318;-59
2023/01/29 00:47:59;;;;;;;12.90;10.53;;;;;;;0.99;94.39;97442.06;5123342;28;20206;-60
2023/01/29 00:50:25;;;;;;;14.93;10.63;;;;;;;0.97;91.79;97449.09;5138377;28;20175;-60
2023/01/29 00:52:53;;;;;;;14.97;11.40;;;;;;;1.01;93.49;97444.63;5138225;28;20195;-61
2023/01/29 00:55:20;;;;;;;11.93;10.20;;;;;;;0.89;91.19;97445.97;5138026;28;20239;-61
2023/01/29 00:57:47;;;;;;;12.07;9.87;;;;;;;0.97;92.82;97445.66;5138619;28;20188;-61
2023/01/29 01:00:16;;;;;;;12.63;10.43;;;;;;;0.98;92.49;97450.81;5140062;28;20198;-60
2023/01/29 01:05:27;;;;;;;13.17;10.13;;;;;;;0.93;91.88;97444.09;5111856;28;20211;-59
2023/01/29 01:07:57;;;;;;;13.23;11.00;;;;;;;0.88;91.88;97452.13;5137322;28;20186;-61
2023/01/29 01:10:25;;;;;;;13.10;11.07;;;;;;;0.97;92.03;97441.28;5138413;28;20259;-61
2023/01/29 01:12:54;;;;;;;13.43;10.20;;;;;;;0.91;91.67;97446.78;5136041;28;20224;-60
2023/01/29 01:15:21;;;;;;;13.50;10.07;;;;;;;0.82;92.21;97457.56;5139809;28;20236;-61
2023/01/29 01:17:48;;;;;;;10.47;9.27;;;;;;;0.86;92.24;97472.16;5133326;28;20211;-62
2023/01/29 01:20:15;;;;;;;12.50;10.50;;;;;;;0.83;92.56;97477.47;5135502;28;20221;-62
2023/01/29 01:22:41;;;;;;;11.50;9.70;;;;;;;0.92;93.57;97466.66;5137052;28;20176;-61
2023/01/29 01:25:10;;;;;;;11.50;9.60;;;;;;;1.04;94.13;97482.69;5141122;28;20176;-61
2023/01/29 01:27:39;;;;;;;11.17;9.53;;;;;;;0.95;92.20;97505.63;5140044;28;20191;-62
2023/01/29 01:30:08;;;;;;;12.33;10.63;;;;;;;0.93;92.47;97497.03;5139488;28;20184;-60
2023/01/29 01:32:35;;;;;;;12.00;9.87;;;;;;;0.93;92.76;97491.81;5138176;28;20547;-60
2023/01/29 01:35:02;;;;;;;13.17;10.60;;;;;;;0.97;92.58;97493.38;5140480;28;20202;-60
2023/01/29 01:37:28;;;;;;;12.87;10.13;;;;;;;0.97;92.88;97498.59;5140144;28;20203;-60
2023/01/29 01:39:56;;;;;;;10.67;9.27;;;;;;;0.94;93.07;97503.94;5138831;28;20194;-60
2023/01/29 01:42:29;;;;;;;12.47;10.30;;;;;;;0.94;92.44;97497.88;5135653;28;20231;-60
2023/01/29 01:45:03;;;;;;;13.37;10.60;;;;;;;0.91;92.37;97496.25;5136124;28;20169;-59
2023/01/29 01:47:35;;;;;;;11.13;9.83;;;;;;;0.95;93.19;97499.56;5138221;28;20235;-61
2023/01/29 01:50:07;;;;;;;13.90;10.57;;;;;;;0.95;93.03;97495.22;5112427;28;20526;-60
2023/01/29 01:52:36;;;;;;;11.43;9.30;;;;;;;0.88;92.37;97498.97;5110787;28;20210;-59
2023/01/29 01:55:03;;;;;;;12.90;9.57;;;;;;;0.92;92.28;97500.53;5107352;28;20230;-60
2023/01/29 01:57:32;;;;;;;11.87;9.93;;;;;;;0.86;92.40;97490.38;5112010;28;20672;-60
2023/01/29 02:00:08;;;;;;;12.63;10.30;;;;;;;0.83;92.14;97492.25;5113147;28;20652;-59
2023/01/29 02:10:49;;;;;;;11.03;8.87;;;;;;;0.83;92.70;97490.50;5138028;28;20202;-60
2023/01/29 02:13:17;;;;;;;10.87;9.10;;;;;;;0.78;92.67;97494.22;5139985;28;20178;-59
2023/01/29 02:15:47;;;;;;;10.40;8.90;;;;;;;0.77;92.35;97501.19;5133880;28;20233;-60
2023/01/29 02:18:14;;;;;;;12.10;9.40;;;;;;;0.76;92.43;97504.69;5131278;28;20214;-60
2023/01/29 02:20:42;;;;;;;13.70;9.73;;;;;;;0.81;92.82;97515.78;5111373;28;20852;-58
2023/01/29 02:23:38;;;;;;;11.47;9.53;;;;;;;0.88;92.85;97508.53;5111844;28;20245;-58
2023/01/29 02:26:16;;;;;;;11.57;9.90;;;;;;;0.83;92.30;97508.72;5110523;28;20188;-60
2023/01/29 02:28:49;;;;;;;13.67;9.67;;;;;;;0.81;92.45;97507.97;5111449;28;20256;-61
2023/01/29 02:31:25;;;;;;;10.73;9.13;;;;;;;0.87;92.08;97507.69;5111612;28;20191;-58
2023/01/29 02:33:59;;;;;;;12.03;9.33;;;;;;;0.91;91.94;97505.81;5124254;28;20206;-61
2023/01/29 02:36:31;;;;;;;11.97;9.33;;;;;;;0.96;90.42;97502.09;5136035;28;20210;-60
2023/01/29 02:39:01;;;;;;;13.30;9.97;;;;;;;0.89;88.52;97510.22;5138414;28;20196;-60
2023/01/29 02:41:30;;;;;;;11.03;8.83;;;;;;;0.85;88.13;97508.69;5138671;28;20220;-61
2023/01/29 02:44:02;;;;;;;10.57;9.10;;;;;;;0.94;86.84;97508.28;5136548;28;20221;-61
2023/01/29 02:46:34;;;;;;;10.10;8.43;;;;;;;0.95;86.52;97499.56;5130647;28;20207;-60
2023/01/29 02:49:06;;;;;;;10.00;8.33;;;;;;;0.90;86.93;97499.75;5122306;28;20210;-60
2023/01/29 02:51:38;;;;;;;9.67;7.87;;;;;;;0.93;85.62;97498.78;5110404;28;20205;-59
2023/01/29 02:54:08;;;;;;;10.43;8.37;;;;;;;0.96;85.22;97491.69;5110816;28;20219;-59
2023/01/29 02:56:37;;;;;;;10.53;8.63;;;;;;;0.90;84.83;97489.34;5111285;28;20254;-60
2023/01/29 02:59:08;;;;;;;10.60;8.27;;;;;;;0.98;84.47;97484.66;5110937;28;20631;-60
2023/01/29 03:01:39;;;;;;;9.73;8.00;;;;;;;1.04;85.17;97482.69;5111250;28;20765;-60
2023/01/29 03:04:09;;;;;;;12.00;9.07;;;;;;;1.06;85.04;97475.69;5112285;28;20211;-59
2023/01/29 03:06:38;;;;;;;11.33;8.57;;;;;;;1.05;85.09;97479.19;5113849;28;20537;-59
2023/01/29 03:09:07;;;;;;;10.30;8.87;;;;;;;1.03;85.01;97475.81;5112124;28;20297;-60
2023/01/29 03:11:38;;;;;;;12.43;9.70;;;;;;;1.07;85.46;97483.41;5115732;28;20192;-60
2023/01/29 03:14:09;;;;;;;10.97;9.43;;;;;;;1.09;86.11;97483.38;5114041;28;20193;-60
2023/01/29 03:16:40;;;;;;;11.63;9.70;;;;;;;1.06;86.23;97486.94;5110828;28;20312;-61
2023/01/29 03:19:09;;;;;;;12.70;9.90;;;;;;;1.07;86.96;97488.63;5118093;28;20204;-59
2023/01/29 03:21:54;;;;;;;11.80;9.47;;;;;;;1.12;86.89;97486.69;5110380;28;20636;-58
2023/01/29 03:32:41;;;;;;;16.13;9.23;;;;;;;1.13;85.28;97484.94;5110733;28;20677;-61
2023/01/29 03:35:09;;;;;;;12.00;9.83;;;;;;;1.12;85.42;97491.03;5111256;28;20706;-59
2023/01/29 03:37:39;;;;;;;12.23;10.00;;;;;;;1.04;85.11;97487.91;5111339;28;20216;-62
2023/01/29 03:40:07;;;;;;;11.97;9.93;;;;;;;1.12;85.12;97483.22;5111322;28;20208;-61
2023/01/29 03:42:42;;;;;;;13.67;10.47;;;;;;;1.05;84.43;97487.00;5111790;28;20208;-61
2023/01/29 03:45:15;;;;;;;12.70;10.00;;;;;;;0.99;85.50;97486.34;5122729;28;20275;-64
2023/01/29 03:47:45;;;;;;;11.63;9.43;;;;;;;1.02;85.26;97480.19;5132038;28;20207;-66
2023/01/29 03:50:21;;;;;;;12.73;9.73;;;;;;;1.06;84.78;97486.09;5111575;28;20208;-61
2023/01/29 03:52:51;;;;;;;12.90;9.97;;;;;;;1.09;85.01;97475.56;5110416;28;20200;-62
2023/01/29 03:55:21;;;;;;;12.00;9.80;;;;;;;1.06;84.18;97475.69;5110391;28;20620;-61
2023/01/29 03:57:53;;;;;;;13.33;10.30;;;;;;;1.08;84.95;97469.50;5110655;28;20660;-61
2023/01/29 04:00:24;;;;;;;11.77;9.87;;;;;;;1.10;85.26;97474.66;5110870;28;20197;-60
2023/01/29 04:02:54;;;;;;;12.93;10.50;;;;;;;1.10;85.05;97466.84;5106459;28;20742;-61
2023/01/29 04:05:24;;;;;;;12.93;9.80;;;;;;;1.11;85.03;97468.50;5104179;28;20200;-60
2023/01/29 04:07:53;;;;;;;12.67;9.73;;;;;;;1.17;85.38;97469.09;5111106;28;20208;-62
2023/01/29 04:10:24;;;;;;;12.03;10.67;;;;;;;1.21;83.67;97459.38;5108178;28;20223;-61
2023/01/29 04:12:55;;;;;;;10.77;9.30;;;;;;;1.17;83.61;97463.06;5113068;28;20219;-60
2023/01/29 04:15:24;;;;;;;11.57;9.67;;;;;;;1.11;82.85;97458.94;5104483;28;20525;-61
2023/01/29 04:17:52;;;;;;;11.77;10.33;;;;;;;1.12;82.99;97462.38;5097513;28;20228;-61
2023/01/29 04:20:19;;;;;;;11.70;10.27;;;;;;;1.12;82.93;97465.00;5109431;28;20581;-61
2023/01/29 04:22:47;;;;;;;13.73;10.57;;;;;;;1.06;83.30;97460.06;5097562;28;20212;-61
2023/01/29 04:25:16;;;;;;;11.47;9.70;;;;;;;1.12;83.08;97454.56;5106335;27;20216;-60
2023/01/29 04:27:48;;;;;;;11.60;9.53;;;;;;;1.07;82.29;97456.53;5104151;28;20212;-60
2023/01/29 04:30:26;;;;;;;11.50;10.10;;;;;;;1.12;82.96;97449.38;5097568;28;20203;-61
2023/01/29 04:32:58;;;;;;;12.00;9.67;;;;;;;1.08;82.85;97453.00;5097184;28;20228;-59
2023/01/29 04:35:31;;;;;;;13.30;10.10;;;;;;;1.16;83.30;97449.19;5102798;28;20224;-61
2023/01/29 04:38:06;;;;;;;12.53;10.10;;;;;;;1.15;82.99;97459.66;5099930;28;20224;-61
2023/01/29 04:40:42;;;;;;;11.57;9.70;;;;;;;1.12;83.09;97444.16;5110583;28;20302;-60
2023/01/29 04:43:14;;;;;;;12.30;9.53;;;;;;;1.17;83.81;97447.44;5100789;28;20212;-59
2023/01/29 04:45:50;;;;;;;12.67;9.37;;;;;;;1.09;82.42;97450.34;5105174;28;20645;-59
2023/01/29 04:48:20;;;;;;;11.60;9.53;;;;;;;1.07;82.19;97446.09;5117409;28;20231;-60
2023/01/29 04:50:53;;;;;;;11.97;9.60;;;;;;;0.98;82.56;97458.63;5116950;28;20648;-60
2023/01/29 04:53:25;;;;;;;11.87;10.23;;;;;;;0.98;82.43;97450.81;5116687;28;20215;-58
2023/01/29 04:55:55;;;;;;;10.23;9.10;;;;;;;1.05;82.49;97461.81;5116786;28;20212;-59
2023/01/29 04:58:26;;;;;;;11.73;9.60;;;;;;;0.99;83.27;97460.28;5110347;28;20327;-60
2023/01/29 05:00:55;;;;;;;11.87;9.70;;;;;;;0.99;82.37;97460.28;5104754;28;20228;-59
2023/01/29 05:03:23;;;;;;;10.37;9.23;;;;;;;1.08;81.85;97460.81;5096465;28;20205;-59
2023/01/29 05:05:51;;;;;;;12.10;9.50;;;;;;;1.04;82.17;97464.47;5113306;28;20212;-61
2023/01/29 05:08:19;;;;;;;11.53;9.47;;;;;;;0.97;81.79;97456.91;5103695;28;20230;-59
2023/01/29 05:10:46;;;;;;;11.70;9.73;;;;;;;1.01;81.85;97457.63;5101112;28;20213;-60
2023/01/29 05:13:14;;;;;;;12.13;9.73;;;;;;;1.00;81.65;97467.22;5108967;27;20609;-59
2023/01/29 05:15:44;;;;;;;12.53;10.10;;;;;;;1.02;81.91;97472.38;5100073;28;20226;-59
2023/01/29 05:18:12;;;;;;;11.00;9.47;;;;;;;1.04;82.09;97473.13;5097788;28;20322;-57
2023/01/29 05:20:40;;;;;;;11.90;9.80;;;;;;;1.07;81.97;97482.56;5113192;28;20212;-59
2023/01/29 05:23:10;;;;;;;9.37;8.40;;;;;;;1.11;81.78;97489.34;5114165;28;20211;-59
2023/01/29 05:25:37;;;;;;;11.57;9.47;;;;;;;1.03;80.97;97494.06;5113613;28;20257;-60
2023/01/29 05:28:03;;;;;;;10.30;8.87;;;;;;;0.97;80.95;97495.97;5113314;28;20302;-59
2023/01/29 05:30:30;;;;;;;11.50;9.30;;;;;;;0.95;81.16;97504.78;5113548;28;20290;-61
2023/01/29 05:32:56;;;;;;;10.63;9.33;;;;;;;1.04;81.22;97498.31;5113288;28;20219;-59
2023/01/29 05:35:24;;;;;;;12.20;9.70;;;;;;;0.96;81.50;97499.50;5111747;28;20204;-60
2023/01/29 05:37:51;;;;;;;11.80;10.00;;;;;;;1.03;81.90;97494.06;5113336;28;20291;-59
2023/01/29 05:40:18;;;;;;;11.87;9.83;;;;;;;0.99;81.95;97501.97;5112981;28;20242;-60
2023/01/29 05:42:44;;;;;;;11.67;9.40;;;;;;;1.00;82.49;97495.84;5113545;28;20213;-60
2023/01/29 05:45:11;;;;;;;11.23;8.87;;;;;;;0.98;80.26;97500.28;5112980;28;20197;-59
2023/01/29 05:47:37;;;;;;;11.20;9.27;;;;;;;1.05;80.97;97507.84;5112919;28;20208;-60
2023/01/29 05:50:04;;;;;;;11.93;9.57;;;;;;;1.08;81.49;97511.16;5113813;28;20218;-60
2023/01/29 05:52:32;;;;;;;11.60;9.80;;;;;;;1.05;82.04;97515.66;5113870;28;20275;-60
2023/01/29 05:54:59;;;;;;;12.33;9.60;;;;;;;0.99;82.75;97512.38;5112183;28;20550;-61
2023/01/29 05:57:25;;;;;;;13.03;9.47;;;;;;;1.06;82.86;97522.56;5115798;28;20228;-61
2023/01/29 05:59:52;;;;;;;11.23;9.77;;;;;;;1.08;82.77;97525.94;5135459;28;20196;-60
2023/01/29 06:02:18;;;;;;;11.67;9.70;;;;;;;0.96;81.95;97529.88;5136265;28;20220;-61
2023/01/29 06:04:44;;;;;;;9.87;8.60;;;;;;;0.94;82.74;97529.13;5125027;28;20585;-60
2023/01/29 06:07:11;;;;;;;11.63;9.27;;;;;;;0.94;82.45;97532.56;5113582;28;20197;-60
2023/01/29 06:09:39;;;;;;;11.17;9.30;;;;;;;0.94;81.81;97529.13;5112431;28;20200;-59
2023/01/29 06:12:06;;;;;;;12.97;10.20;;;;;;;0.94;82.28;97529.97;5113080;28;20211;-59
2023/01/29 06:14:33;;;;;;;12.03;9.67;;;;;;;0.97;83.19;97532.44;5112556;28;20305;-60
2023/01/29 06:16:59;;;;;;;12.37;9.60;;;;;;;0.93;82.37;97533.47;5110015;28;20662;-60
2023/01/29 06:19:26;;;;;;;11.70;9.07;;;;;;;0.95;82.13;97531.69;5112620;28;20207;-60
2023/01/29 06:21:52;;;;;;;11.10;8.97;;;;;;;0.99;82.21;97528.00;5113459;28;20207;-59
2023/01/29 06:24:19;;;;;;;11.87;9.87;;;;;;;0.95;81.84;97530.81;5112464;28;20209;-59
2023/01/29 06:26:47;;;;;;;11.47;9.70;;;;;;;0.95;82.58;97536.88;5112281;28;20208;-59
2023/01/29 06:29:13;;;;;;;11.20;9.60;;;;;;;0.99;82.43;97540.22;5111501;28;20227;-60
2023/01/29 06:31:40;;;;;;;14.17;9.80;;;;;;;1.06;82.46;97543.41;5111939;28;20195;-60
2023/01/29 06:34:06;;;;;;;12.00;9.60;;;;;;;0.98;82.45;97547.16;5112702;28;20209;-58
2023/01/29 06:36:33;;;;;;;11.13;8.97;;;;;;;1.02;81.59;97547.88;5111739;28;20227;-60
2023/01/29 06:39:00;;;;;;;9.63;8.43;;;;;;;0.99;81.26;97545.41;5129721;28;20192;-62
2023/01/29 06:41:27;;;;;;;10.13;8.20;;;;;;;0.94;81.24;97560.38;5135604;28;20204;-62
2023/01/29 06:43:55;;;;;;;10.90;8.53;;;;;;;0.91;81.61;97556.13;5136623;28;20196;-61
2023/01/29 06:46:21;;;;;;;11.33;9.13;;;;;;;0.98;81.58;97549.78;5132192;28;20192;-60
2023/01/29 06:48:48;;;;;;;10.60;9.03;;;;;;;0.94;81.55;97558.63;5112187;28;20295;-60
2023/01/29 06:51:14;;;;;;;10.50;8.67;;;;;;;0.95;82.56;97559.47;5111576;28;20208;-60
2023/01/29 06:53:41;;;;;;;12.00;9.57;;;;;;;0.96;81.87;97572.41;5112223;28;20204;-60
2023/01/29 06:56:08;;;;;;;10.43;8.67;;;;;;;0.98;81.71;97572.34;5111134;28;20686;-60
2023/01/29 06:58:36;;;;;;;10.10;8.20;;;;;;;0.96;81.66;97564.59;5112483;28;20213;-59
2023/01/29 07:01:05;;;;;;;10.90;8.77;;;;;;;0.95;82.17;97564.69;5110949;28;20243;-60
2023/01/29 07:03:32;;;;;;;10.40;8.97;;;;;;;0.94;81.44;97569.03;5111805;28;20202;-60
2023/01/29 07:05:58;;;;;;;11.53;9.13;;;;;;;0.92;81.95;97572.63;5111276;28;20197;-58
2023/01/29 07:08:25;;;;;;;9.53;8.50;;;;;;;0.91;81.14;97558.75;5111347;28;20199;-59
2023/01/29 07:10:51;;;;;;;11.07;8.83;;;;;;;1.03;81.36;97559.16;5110775;28;20212;-60
2023/01/29 07:13:17;;;;;;;10.80;9.47;;;;;;;0.99;81.91;97558.44;5111886;28;20211;-60
2023/01/29 07:15:44;;;;;;;10.80;8.47;;;;;;;1.05;81.01;97549.50;5109408;28;20212;-59
2023/01/29 07:18:12;;;;;;;9.63;8.63;;;;;;;0.99;81.67;97546.25;5110524;28;20203;-60
2023/01/29 07:20:39;;;;;;;10.30;8.93;;;;;;;0.97;81.58;97535.06;5110700;28;20209;-60
2023/01/29 07:23:06;;;;;;;11.33;9.23;;;;;;;0.96;81.82;97537.69;5110556;28;20538;-60
2023/01/29 07:25:33;;;;;;;12.13;9.77;;;;;;;0.96;83.03;97530.75;5110534;28;20200;-60
2023/01/29 07:28:00;;;;;;;10.17;8.77;;;;;;;0.97;82.38;97535.06;5110299;28;20295;-60
2023/01/29 07:30:26;;;;;;;9.90;8.87;;;;;;;1.02;82.23;97537.47;5109403;28;20222;-61
2023/01/29 07:32:53;;;;;;;11.67;9.53;;;;;;;1.07;81.84;97540.72;5109686;28;20212;-60
2023/01/29 07:35:20;;;;;;;10.17;8.13;;;;;;;0.95;80.81;97544.69;5110378;28;20209;-61
2023/01/29 07:37:49;;;;;;;10.57;8.97;;;;;;;0.99;81.95;97541.03;5110814;28;20254;-58
2023/01/29 07:40:15;;;;;;;11.17;9.23;;;;;;;1.07;82.35;97545.94;5112825;28;20222;-59
2023/01/29 07:42:43;;;;;;;11.03;9.63;;;;;;;1.03;82.38;97540.94;5114863;28;20514;-61
2023/01/29 07:45:10;;;;;;;11.07;9.23;;;;;;;1.08;81.83;97542.41;5114468;28;20265;-61
2023/01/29 07:47:37;;;;;;;11.63;9.13;;;;;;;1.11;81.89;97537.06;5114662;28;20215;-59
2023/01/29 07:50:03;;;;;;;9.77;8.20;;;;;;;1.23;81.16;97540.94;5114260;28;20926;-61
2023/01/29 07:52:33;;;;;;;9.83;8.40;;;;;;;1.11;79.95;97544.03;5114757;28;20208;-60
2023/01/29 07:54:59;;;;;;;9.00;8.07;;;;;;;1.23;81.44;97540.94;5114028;28;20206;-59
2023/01/29 07:57:26;;;;;;;8.93;7.70;;;;;;;1.21;81.80;97543.59;5114530;28;20557;-60
2023/01/29 07:59:52;;;;;;;11.37;8.53;;;;;;;1.28;80.39;97539.81;5113936;28;20200;-60
2023/01/29 08:02:19;;;;;;;10.63;8.37;;;;;;;1.41;79.81;97547.97;5113167;28;20242;-59
2023/01/29 08:04:45;;;;;;;8.60;7.70;;;;;;;1.34;78.79;97543.94;5114275;28;20204;-58
2023/01/29 08:07:11;;;;;;;8.70;7.80;;;;;;;1.34;77.60;97543.94;5114795;28;20218;-59
2023/01/29 08:09:39;;;;;;;9.53;8.20;;;;;;;1.38;78.88;97548.13;5114527;28;20227;-61
2023/01/29 08:12:06;;;;;;;9.90;8.63;;;;;;;1.34;79.18;97534.38;5116140;28;20212;-58
2023/01/29 08:14:34;;;;;;;10.90;8.93;;;;;;;1.27;78.93;97538.16;5114978;28;20212;-60
2023/01/29 08:17:00;;;;;;;10.77;9.30;;;;;;;1.34;79.47;97536.97;5115719;28;20224;-59
2023/01/29 08:19:27;;;;;;;11.00;9.00;;;;;;;1.26;79.63;97530.38;5114517;28;20204;-60
2023/01/29 08:21:53;;;;;;;10.97;8.73;;;;;;;1.37;79.23;97538.59;5115301;28;20216;-59
2023/01/29 08:24:20;;;;;;;10.80;8.50;;;;;;;1.43;79.10;97533.13;5114539;28;20208;-59
2023/01/29 08:26:47;;;;;;;10.03;8.97;;;;;;;1.49;78.65;97538.06;5114277;28;20197;-59
2023/01/29 08:29:14;;;;;;;10.53;9.43;;;;;;;1.46;78.65;97543.41;5114322;28;20206;-60
2023/01/29 08:31:41;;;;;;;11.53;10.10;;;;;;;1.53;79.49;97544.84;5114287;28;20223;-59
2023/01/29 08:34:07;;;;;;;11.80;9.37;;;;;;;1.56;78.97;97549.91;5113217;28;20201;-60
2023/01/29 08:36:34;;;;;;;10.53;9.17;;;;;;;1.43;78.21;97544.38;5113590;28;20232;-58
2023/01/29 08:39:00;;;;;;;11.20;9.53;;;;;;;1.43;78.97;97553.97;5113629;28;20204;-59
2023/01/29 08:41:27;;;;;;;10.57;9.00;;;;;;;1.46;78.99;97559.91;5114590;28;20205;-58
2023/01/29 08:43:56;;;;;;;11.97;9.60;;;;;;;1.47;78.71;97556.38;5115327;28;20208;-60
2023/01/29 08:46:22;;;;;;;14.73;10.10;;;;;;;1.50;79.15;97542.38;5116622;28;20208;-60
2023/01/29 08:48:49;;;;;;;11.80;9.47;;;;;;;1.54;78.91;97543.94;5119637;28;20216;-60
2023/01/29 08:51:15;;;;;;;10.90;9.03;;;;;;;1.52;78.04;97550.97;5120889;28;20219;-59
2023/01/29 08:53:41;;;;;;;10.87;9.30;;;;;;;1.55;78.69;97555.22;5122128;28;20532;-59
2023/01/29 08:56:08;;;;;;;12.03;9.40;;;;;;;1.54;78.57;97556.13;5118834;28;20528;-60
2023/01/29 08:58:35;;;;;;;12.63;9.63;;;;;;;1.46;77.68;97566.84;5113468;28;20651;-60
2023/01/29 09:01:11;;;;;;;13.57;9.57;;;;;;;1.54;77.55;97562.19;5112837;28;20246;-61
2023/01/29 09:03:39;;;;;;;10.67;9.53;;;;;;;1.48;78.24;97575.47;5113052;28;20215;-59
2023/01/29 09:06:06;;;;;;;11.10;9.27;;;;;;;1.55;78.65;97574.31;5113284;28;20211;-60
2023/01/29 09:08:33;;;;;;;9.80;8.70;;;;;;;1.51;78.50;97572.75;5113527;28;20204;-60
2023/01/29 09:10:59;;;;;;;9.93;8.93;;;;;;;1.63;79.79;97574.81;5113000;28;20208;-59
2023/01/29 09:13:26;;;;;;;10.03;8.90;;;;;;;1.67;78.70;97572.91;5113742;28;20257;-59
2023/01/29 09:15:53;;;;;;;10.80;9.07;;;;;;;1.71;79.36;97569.25;5114263;28;21333;-60
2023/01/29 09:18:21;;;;;;;10.50;9.40;;;;;;;1.73;79.22;97578.75;5114980;28;20228;-59
2023/01/29 09:20:48;;;;;;;10.67;9.57;;;;;;;1.80;79.02;97580.16;5114564;28;20213;-60
2023/01/29 09:23:14;;;;;;;11.27;10.00;;;;;;;1.78;78.25;97581.13;5114648;28;20212;-61
2023/01/29 09:25:45;;;;;;;11.40;9.80;;;;;;;1.73;77.49;97576.13;5112624;28;20747;-59
2023/01/29 09:28:11;;;;;;;12.27;10.17;;;;;;;1.70;77.49;97586.66;5113128;28;20192;-60
2023/01/29 09:30:38;;;;;;;12.17;10.00;;;;;;;1.73;78.64;97589.16;5113261;28;20631;-60
2023/01/29 09:33:04;;;;;;;10.83;9.40;;;;;;;1.70;77.70;97599.69;5112388;28;20218;-59
2023/01/29 09:35:33;;;;;;;12.03;9.23;;;;;;;1.71;77.46;97596.19;5112732;28;20208;-58
2023/01/29 09:37:59;;;;;;;11.17;9.30;;;;;;;1.61;77.67;97592.28;5112654;28;20718;-60
2023/01/29 09:40:31;;;;;;;13.43;10.53;;;;;;;1.70;78.34;97588.44;5112163;28;20636;-60
2023/01/29 09:43:01;;;;;;;12.43;10.27;;;;;;;1.75;78.24;97586.47;5112797;28;20628;-59
2023/01/29 09:45:28;;;;;;;14.07;10.13;;;;;;;1.68;77.75;97592.88;5112856;28;20201;-59
2023/01/29 09:47:57;;;;;;;11.47;9.77;;;;;;;1.76;78.01;97596.84;5112542;28;20293;-60
2023/01/29 09:50:36;;;;;;;10.97;9.47;;;;;;;1.86;77.11;97594.69;5112845;28;20218;-59
2023/01/29 09:53:08;;;;;;;10.27;9.17;;;;;;;1.81;76.75;97602.69;5112148;28;20200;-61
2023/01/29 09:55:38;;;;;;;9.87;8.83;;;;;;;1.85;76.74;97609.47;5111075;28;20295;-59
2023/01/29 09:58:12;;;;;;;9.77;8.77;;;;;;;1.91;77.14;97606.59;5112153;28;20226;-59
2023/01/29 10:00:44;;;;;;;10.37;9.07;;;;;;;2.03;77.76;97604.38;5112726;28;20200;-60
2023/01/29 10:03:46;;;;;;;10.87;8.63;;;;;;;2.09;77.21;97602.31;5112896;28;20238;-59
2023/01/29 10:06:22;;;;;;;10.63;9.33;;;;;;;1.97;75.43;97606.34;5075484;28;20218;-60
2023/01/29 10:09:04;;;;;;;11.13;9.13;;;;;;;1.93;76.32;97596.97;5111804;28;20200;-61
2023/01/29 10:11:39;;;;;;;12.77;9.40;;;;;;;1.94;75.95;97603.88;5112101;28;20515;-58
2023/01/29 10:14:14;;;;;;;10.40;9.27;;;;;;;1.95;75.34;97595.13;5111915;28;20212;-61
2023/01/29 10:16:51;;;;;;;11.43;9.67;;;;;;;2.07;77.31;97601.56;5112296;28;20214;-60
2023/01/29 10:19:35;;;;;;;9.93;8.93;;;;;;;2.16;76.87;97605.53;5111173;28;20203;-58
2023/01/29 10:22:27;;;;;;;10.10;9.03;;;;;;;2.22;75.37;97613.09;5112215;28;20209;-59
2023/01/29 10:24:57;;;;;;;11.17;9.40;;;;;;;2.26;75.32;97604.22;5111629;28;20194;-58
2023/01/29 10:27:29;;;;;;;11.50;8.97;;;;;;;2.27;74.87;97604.13;5111687;28;20213;-59
2023/01/29 10:29:56;;;;;;;10.90;9.43;;;;;;;2.26;75.32;97604.22;5112104;28;20201;-60
2023/01/29 10:32:25;;;;;;;10.20;8.70;;;;;;;2.30;74.46;97613.59;5111969;28;20204;-60
2023/01/29 10:34:56;;;;;;;12.13;9.73;;;;;;;2.28;74.78;97607.59;5112378;28;20221;-58
2023/01/29 10:37:26;;;;;;;11.07;9.87;;;;;;;2.20;75.22;97615.75;5111061;28;20269;-59
2023/01/29 10:39:52;;;;;;;11.27;9.73;;;;;;;2.16;75.25;97608.16;5112270;28;20205;-58
2023/01/29 10:42:29;;;;;;;10.83;9.20;;;;;;;2.21;75.91;97619.22;5113539;28;20201;-60
2023/01/29 10:45:05;;;;;;;10.23;8.73;;;;;;;2.31;76.24;97628.31;5112605;28;20532;-59
2023/01/29 10:48:03;;;;;;;11.57;9.83;;;;;;;2.23;76.07;97622.63;5112732;28;20529;-60
2023/01/29 10:50:43;;;;;;;12.30;10.03;;;;;;;2.20;75.78;97617.50;5105123;28;20213;-60
2023/01/29 10:53:22;;;;;;;11.60;9.87;;;;;;;2.37;77.09;97612.41;5111822;28;20196;-60
2023/01/29 10:55:56;;;;;;;11.40;9.93;;;;;;;2.34;75.74;97617.75;5111700;28;20644;-60
2023/01/29 10:58:30;;;;;;;10.87;9.70;;;;;;;2.47;76.08;97613.69;5111352;28;20216;-64
2023/01/29 11:00:56;;;;;;;10.67;9.57;;;;;;;2.43;75.47;97606.91;5111471;28;20229;-59
2023/01/29 11:03:24;;;;;;;11.87;10.23;;;;;;;2.37;75.54;97594.13;5111177;28;20212;-61
2023/01/29 11:05:56;;;;;;;12.07;9.90;;;;;;;2.45;75.65;97605.06;5111774;28;20231;-60
2023/01/29 11:08:27;;;;;;;11.00;9.80;;;;;;;2.53;74.94;97587.28;5112307;28;20201;-60
2023/01/29 11:11:01;;;;;;;11.20;9.80;;;;;;;2.32;73.94;97588.25;5112174;28;20205;-61
2023/01/29 11:13:32;;;;;;;11.27;10.00;;;;;;;2.24;74.09;97585.16;5112284;28;20204;-62
2023/01/29 11:15:58;;;;;;;10.67;9.50;;;;;;;2.36;74.83;97584.59;5111434;28;20204;-59
2023/01/29 11:18:25;;;;;;;12.67;10.30;;;;;;;2.35;75.02;97588.13;5110646;28;20224;-59
2023/01/29 11:21:00;;;;;;;10.47;9.37;;;;;;;2.23;74.34;97584.28;5111115;28;20219;-60
2023/01/29 11:23:29;;;;;;;11.13;9.93;;;;;;;2.26;74.30;97585.94;5111507;28;20195;-61
2023/01/29 11:25:57;;;;;;;10.70;9.47;;;;;;;2.29;74.71;97577.97;5110275;28;20216;-60
2023/01/29 11:28:38;;;;;;;10.97;9.57;;;;;;;2.17;75.10;97578.50;5111466;28;20233;-60
2023/01/29 11:31:16;;;;;;;11.33;9.93;;;;;;;2.42;74.86;97573.88;5111268;28;20209;-59
2023/01/29 11:33:43;;;;;;;11.07;9.43;;;;;;;2.49;74.97;97572.66;5111218;28;20201;-58
2023/01/29 11:36:31;;;;;;;11.77;10.53;;;;;;;2.37;74.56;97561.03;5111140;28;20216;-59
2023/01/29 11:39:10;;;;;;;12.90;10.53;;;;;;;2.40;73.83;97565.28;5110623;28;20213;-60
2023/01/29 11:41:43;;;;;;;10.53;9.50;;;;;;;2.33;73.03;97561.25;5111661;28;20238;-59
2023/01/29 11:44:20;;;;;;;10.23;9.13;;;;;;;2.54;73.01;97557.66;5111461;28;20200;-59
2023/01/29 11:46:46;;;;;;;11.77;10.53;;;;;;;2.43;73.30;97552.09;5111008;28;20201;-59
2023/01/29 11:49:22;;;;;;;11.37;10.17;;;;;;;2.34;73.47;97552.50;5111026;28;20193;-59
2023/01/29 11:51:52;;;;;;;11.43;9.60;;;;;;;2.30;74.68;97548.34;5110707;28;20647;-59
2023/01/29 11:54:19;;;;;;;11.67;9.53;;;;;;;2.49;74.84;97550.03;5110697;28;20678;-60
2023/01/29 11:56:46;;;;;;;11.00;9.90;;;;;;;2.50;74.97;97548.25;5111383;28;20208;-58
2023/01/29 11:59:35;;;;;;;11.63;10.00;;;;;;;2.50;74.02;97550.88;5115482;28;20882;-59
2023/01/29 12:02:12;;;;;;;10.77;9.67;;;;;;;2.51;75.00;97536.91;5127481;28;20225;-60
2023/01/29 12:04:39;;;;;;;12.77;10.10;;;;;;;2.49;73.69;97541.34;5124901;28;20621;-60